sensor_id;sensor_type;location;lat;lon;timestamp;P1;durP1;ratioP1;P2;durP2;ratioP2
9799;SDS011;4939;52.00085300;4.17406100;2022-10-31T00:03:52;5.90;;;2.55;;
9799;SDS011;4939;52.00085300;4.17406100;2022-10-31T00:06:19;6.57;;;2.33;;
9799;SDS011;4939;52.00085300;4.17406100;2022-10-31T00:08:46;4.85;;;2.10;;
9799;SDS011;4939;52.00085300;4.17406100;2022-10-31T00:11:12;7.38;;;2.20;;
9799;SDS011;4939;52.00085300;4.17406100;2022-10-31T00:13:38;6.47;;;2.25;;
9799;SDS011;4939;52.00085300;4.17406100;2022-10-31T00:16:05;6.85;;;2.20;;
9799;SDS011;4939;52.00085300;4.17406100;2022-10-31T00:18:38;6.30;;;2.08;;
9799;SDS011;4939;52.00085300;4.17406100;2022-10-31T00:21:04;5.57;;;2.13;;
9799;SDS011;4939;52.00085300;4.17406100;2022-10-31T00:23:30;7.07;;;2.25;;
9799;SDS011;4939;52.00085300;4.17406100;2022-10-31T00:26:00;8.60;;;2.72;;
9799;SDS011;4939;52.00085300;4.17406100;2022-10-31T00:28:26;7.00;;;2.40;;
9799;SDS011;4939;52.00085300;4.17406100;2022-10-31T00:30:59;6.90;;;2.58;;
9799;SDS011;4939;52.00085300;4.17406100;2022-10-31T00:33:25;5.43;;;2.75;;
9799;SDS011;4939;52.00085300;4.17406100;2022-10-31T00:35:51;6.70;;;2.67;;
9799;SDS011;4939;52.00085300;4.17406100;2022-10-31T00:38:17;8.80;;;2.50;;
9799;SDS011;4939;52.00085300;4.17406100;2022-10-31T00:40:43;10.38;;;3.28;;
9799;SDS011;4939;52.00085300;4.17406100;2022-10-31T00:43:10;7.45;;;3.13;;
9799;SDS011;4939;52.00085300;4.17406100;2022-10-31T00:45:36;7.10;;;3.10;;
9799;SDS011;4939;52.00085300;4.17406100;2022-10-31T00:48:02;8.73;;;3.00;;
9799;SDS011;4939;52.00085300;4.17406100;2022-10-31T00:50:28;9.98;;;3.35;;
9799;SDS011;4939;52.00085300;4.17406100;2022-10-31T00:52:54;7.30;;;2.95;;
9799;SDS011;4939;52.00085300;4.17406100;2022-10-31T00:55:22;11.38;;;3.30;;
9799;SDS011;4939;52.00085300;4.17406100;2022-10-31T00:57:48;6.78;;;3.22;;
9799;SDS011;4939;52.00085300;4.17406100;2022-10-31T01:00:14;7.65;;;3.58;;
9799;SDS011;4939;52.00085300;4.17406100;2022-10-31T01:02:40;8.48;;;3.38;;
9799;SDS011;4939;52.00085300;4.17406100;2022-10-31T01:05:06;8.18;;;4.18;;
9799;SDS011;4939;52.00085300;4.17406100;2022-10-31T01:07:36;7.22;;;3.50;;
9799;SDS011;4939;52.00085300;4.17406100;2022-10-31T01:10:02;6.25;;;3.17;;
9799;SDS011;4939;52.00085300;4.17406100;2022-10-31T01:12:29;9.25;;;3.58;;
9799;SDS011;4939;52.00085300;4.17406100;2022-10-31T01:14:55;6.50;;;3.20;;
9799;SDS011;4939;52.00085300;4.17406100;2022-10-31T01:17:21;11.52;;;3.58;;
9799;SDS011;4939;52.00085300;4.17406100;2022-10-31T01:19:47;7.68;;;3.55;;
9799;SDS011;4939;52.00085300;4.17406100;2022-10-31T01:22:13;8.45;;;3.70;;
9799;SDS011;4939;52.00085300;4.17406100;2022-10-31T01:24:39;8.57;;;3.78;;
9799;SDS011;4939;52.00085300;4.17406100;2022-10-31T01:27:05;8.27;;;3.72;;
9799;SDS011;4939;52.00085300;4.17406100;2022-10-31T01:29:31;9.85;;;4.05;;
9799;SDS011;4939;52.00085300;4.17406100;2022-10-31T01:31:57;8.75;;;4.18;;
9799;SDS011;4939;52.00085300;4.17406100;2022-10-31T01:34:23;8.85;;;4.35;;
9799;SDS011;4939;52.00085300;4.17406100;2022-10-31T01:36:50;10.55;;;4.13;;
9799;SDS011;4939;52.00085300;4.17406100;2022-10-31T01:39:16;11.20;;;4.78;;
9799;SDS011;4939;52.00085300;4.17406100;2022-10-31T01:41:47;9.02;;;4.68;;
9799;SDS011;4939;52.00085300;4.17406100;2022-10-31T01:46:40;13.20;;;5.45;;
9799;SDS011;4939;52.00085300;4.17406100;2022-10-31T01:49:09;11.80;;;6.00;;
9799;SDS011;4939;52.00085300;4.17406100;2022-10-31T01:51:38;11.07;;;5.78;;
9799;SDS011;4939;52.00085300;4.17406100;2022-10-31T01:54:08;11.85;;;6.43;;
9799;SDS011;4939;52.00085300;4.17406100;2022-10-31T01:56:36;11.05;;;6.00;;
9799;SDS011;4939;52.00085300;4.17406100;2022-10-31T01:59:04;11.15;;;6.10;;
9799;SDS011;4939;52.00085300;4.17406100;2022-10-31T02:01:33;15.00;;;7.20;;
9799;SDS011;4939;52.00085300;4.17406100;2022-10-31T02:03:59;13.90;;;6.72;;
9799;SDS011;4939;52.00085300;4.17406100;2022-10-31T02:06:27;15.02;;;6.47;;
9799;SDS011;4939;52.00085300;4.17406100;2022-10-31T02:08:56;11.57;;;6.65;;
9799;SDS011;4939;52.00085300;4.17406100;2022-10-31T02:11:23;12.23;;;5.95;;
9799;SDS011;4939;52.00085300;4.17406100;2022-10-31T02:13:49;13.15;;;6.22;;
9799;SDS011;4939;52.00085300;4.17406100;2022-10-31T02:16:16;14.00;;;7.40;;
9799;SDS011;4939;52.00085300;4.17406100;2022-10-31T02:18:42;14.75;;;7.25;;
9799;SDS011;4939;52.00085300;4.17406100;2022-10-31T02:26:17;13.07;;;6.85;;
9799;SDS011;4939;52.00085300;4.17406100;2022-10-31T02:31:40;14.98;;;6.80;;
9799;SDS011;4939;52.00085300;4.17406100;2022-10-31T02:34:17;13.55;;;6.75;;
9799;SDS011;4939;52.00085300;4.17406100;2022-10-31T02:41:52;13.52;;;6.90;;
9799;SDS011;4939;52.00085300;4.17406100;2022-10-31T02:46:57;15.25;;;7.20;;
9799;SDS011;4939;52.00085300;4.17406100;2022-10-31T02:52:28;15.02;;;7.40;;
9799;SDS011;4939;52.00085300;4.17406100;2022-10-31T02:54:53;14.98;;;7.38;;
9799;SDS011;4939;52.00085300;4.17406100;2022-10-31T02:57:20;14.27;;;8.13;;
9799;SDS011;4939;52.00085300;4.17406100;2022-10-31T02:59:48;19.25;;;9.20;;
9799;SDS011;4939;52.00085300;4.17406100;2022-10-31T03:04:45;18.23;;;9.60;;
9799;SDS011;4939;52.00085300;4.17406100;2022-10-31T03:10:03;18.40;;;9.57;;
9799;SDS011;4939;52.00085300;4.17406100;2022-10-31T03:12:33;18.50;;;8.98;;
9799;SDS011;4939;52.00085300;4.17406100;2022-10-31T03:17:36;21.70;;;10.30;;
9799;SDS011;4939;52.00085300;4.17406100;2022-10-31T03:20:02;16.20;;;10.27;;
9799;SDS011;4939;52.00085300;4.17406100;2022-10-31T03:22:30;16.13;;;9.73;;
9799;SDS011;4939;52.00085300;4.17406100;2022-10-31T03:24:56;20.00;;;9.90;;
9799;SDS011;4939;52.00085300;4.17406100;2022-10-31T03:27:24;17.30;;;10.43;;
9799;SDS011;4939;52.00085300;4.17406100;2022-10-31T03:29:52;19.42;;;10.80;;
9799;SDS011;4939;52.00085300;4.17406100;2022-10-31T03:32:24;23.02;;;10.90;;
9799;SDS011;4939;52.00085300;4.17406100;2022-10-31T03:34:51;21.70;;;12.32;;
9799;SDS011;4939;52.00085300;4.17406100;2022-10-31T03:37:19;21.85;;;10.93;;
9799;SDS011;4939;52.00085300;4.17406100;2022-10-31T03:39:46;19.60;;;11.35;;
9799;SDS011;4939;52.00085300;4.17406100;2022-10-31T03:42:18;22.45;;;11.75;;
9799;SDS011;4939;52.00085300;4.17406100;2022-10-31T03:44:46;23.80;;;11.52;;
9799;SDS011;4939;52.00085300;4.17406100;2022-10-31T03:47:15;21.45;;;10.98;;
9799;SDS011;4939;52.00085300;4.17406100;2022-10-31T03:49:42;21.98;;;11.18;;
9799;SDS011;4939;52.00085300;4.17406100;2022-10-31T03:52:12;20.50;;;11.20;;
9799;SDS011;4939;52.00085300;4.17406100;2022-10-31T03:54:43;20.92;;;11.55;;
9799;SDS011;4939;52.00085300;4.17406100;2022-10-31T03:57:24;19.95;;;11.73;;
9799;SDS011;4939;52.00085300;4.17406100;2022-10-31T03:59:54;20.30;;;10.85;;
9799;SDS011;4939;52.00085300;4.17406100;2022-10-31T04:02:22;19.70;;;10.80;;
9799;SDS011;4939;52.00085300;4.17406100;2022-10-31T04:04:51;20.92;;;11.48;;
9799;SDS011;4939;52.00085300;4.17406100;2022-10-31T04:07:17;19.25;;;11.35;;
9799;SDS011;4939;52.00085300;4.17406100;2022-10-31T04:09:45;21.85;;;10.15;;
9799;SDS011;4939;52.00085300;4.17406100;2022-10-31T04:12:12;18.58;;;10.10;;
9799;SDS011;4939;52.00085300;4.17406100;2022-10-31T04:14:43;20.45;;;10.55;;
9799;SDS011;4939;52.00085300;4.17406100;2022-10-31T04:17:12;18.48;;;10.20;;
9799;SDS011;4939;52.00085300;4.17406100;2022-10-31T04:19:39;19.83;;;11.02;;
9799;SDS011;4939;52.00085300;4.17406100;2022-10-31T04:22:05;20.52;;;9.55;;
9799;SDS011;4939;52.00085300;4.17406100;2022-10-31T04:24:32;21.88;;;11.25;;
9799;SDS011;4939;52.00085300;4.17406100;2022-10-31T04:26:58;18.20;;;9.85;;
9799;SDS011;4939;52.00085300;4.17406100;2022-10-31T04:29:24;19.13;;;11.30;;
9799;SDS011;4939;52.00085300;4.17406100;2022-10-31T04:31:50;20.38;;;10.85;;
9799;SDS011;4939;52.00085300;4.17406100;2022-10-31T04:34:16;20.48;;;10.63;;
9799;SDS011;4939;52.00085300;4.17406100;2022-10-31T04:36:42;19.77;;;11.25;;
9799;SDS011;4939;52.00085300;4.17406100;2022-10-31T04:39:08;20.05;;;11.05;;
9799;SDS011;4939;52.00085300;4.17406100;2022-10-31T04:41:34;25.48;;;12.38;;
9799;SDS011;4939;52.00085300;4.17406100;2022-10-31T04:44:00;24.80;;;12.40;;
9799;SDS011;4939;52.00085300;4.17406100;2022-10-31T04:46:26;24.70;;;12.88;;
9799;SDS011;4939;52.00085300;4.17406100;2022-10-31T04:48:52;25.20;;;13.63;;
9799;SDS011;4939;52.00085300;4.17406100;2022-10-31T04:51:18;26.30;;;13.77;;
9799;SDS011;4939;52.00085300;4.17406100;2022-10-31T04:53:44;26.70;;;13.25;;
9799;SDS011;4939;52.00085300;4.17406100;2022-10-31T04:56:11;25.67;;;13.40;;
9799;SDS011;4939;52.00085300;4.17406100;2022-10-31T04:58:37;22.65;;;13.07;;
9799;SDS011;4939;52.00085300;4.17406100;2022-10-31T05:01:03;28.42;;;14.45;;
9799;SDS011;4939;52.00085300;4.17406100;2022-10-31T05:03:29;23.83;;;13.88;;
9799;SDS011;4939;52.00085300;4.17406100;2022-10-31T05:05:55;27.88;;;13.93;;
9799;SDS011;4939;52.00085300;4.17406100;2022-10-31T05:08:21;25.98;;;14.52;;
9799;SDS011;4939;52.00085300;4.17406100;2022-10-31T05:10:47;30.95;;;15.10;;
9799;SDS011;4939;52.00085300;4.17406100;2022-10-31T05:13:13;32.75;;;15.38;;
9799;SDS011;4939;52.00085300;4.17406100;2022-10-31T05:15:40;34.75;;;15.70;;
9799;SDS011;4939;52.00085300;4.17406100;2022-10-31T05:18:06;36.40;;;16.85;;
9799;SDS011;4939;52.00085300;4.17406100;2022-10-31T05:20:33;33.50;;;16.55;;
9799;SDS011;4939;52.00085300;4.17406100;2022-10-31T05:22:59;33.33;;;16.80;;
9799;SDS011;4939;52.00085300;4.17406100;2022-10-31T05:25:26;32.88;;;16.20;;
9799;SDS011;4939;52.00085300;4.17406100;2022-10-31T05:27:53;31.38;;;15.30;;
9799;SDS011;4939;52.00085300;4.17406100;2022-10-31T05:30:20;28.33;;;14.40;;
9799;SDS011;4939;52.00085300;4.17406100;2022-10-31T05:32:47;32.63;;;15.50;;
9799;SDS011;4939;52.00085300;4.17406100;2022-10-31T05:35:24;30.27;;;15.13;;
9799;SDS011;4939;52.00085300;4.17406100;2022-10-31T05:37:50;34.70;;;15.65;;
9799;SDS011;4939;52.00085300;4.17406100;2022-10-31T05:40:17;32.65;;;15.45;;
9799;SDS011;4939;52.00085300;4.17406100;2022-10-31T05:42:44;32.65;;;14.88;;
9799;SDS011;4939;52.00085300;4.17406100;2022-10-31T05:45:12;31.70;;;14.73;;
9799;SDS011;4939;52.00085300;4.17406100;2022-10-31T05:47:38;33.08;;;15.35;;
9799;SDS011;4939;52.00085300;4.17406100;2022-10-31T05:50:05;35.00;;;14.35;;
9799;SDS011;4939;52.00085300;4.17406100;2022-10-31T05:52:31;32.55;;;15.57;;
9799;SDS011;4939;52.00085300;4.17406100;2022-10-31T05:54:57;33.88;;;14.98;;
9799;SDS011;4939;52.00085300;4.17406100;2022-10-31T05:57:24;32.75;;;15.60;;
9799;SDS011;4939;52.00085300;4.17406100;2022-10-31T05:59:50;30.70;;;15.75;;
9799;SDS011;4939;52.00085300;4.17406100;2022-10-31T06:02:19;28.55;;;14.75;;
9799;SDS011;4939;52.00085300;4.17406100;2022-10-31T06:04:45;32.83;;;15.63;;
9799;SDS011;4939;52.00085300;4.17406100;2022-10-31T06:07:11;37.05;;;15.40;;
9799;SDS011;4939;52.00085300;4.17406100;2022-10-31T06:09:38;35.03;;;15.82;;
9799;SDS011;4939;52.00085300;4.17406100;2022-10-31T06:12:04;33.22;;;16.20;;
9799;SDS011;4939;52.00085300;4.17406100;2022-10-31T06:14:30;32.92;;;16.10;;
9799;SDS011;4939;52.00085300;4.17406100;2022-10-31T06:16:56;33.67;;;16.08;;
9799;SDS011;4939;52.00085300;4.17406100;2022-10-31T06:19:22;33.20;;;16.08;;
9799;SDS011;4939;52.00085300;4.17406100;2022-10-31T06:21:48;32.90;;;16.55;;
9799;SDS011;4939;52.00085300;4.17406100;2022-10-31T06:24:17;34.28;;;16.05;;
9799;SDS011;4939;52.00085300;4.17406100;2022-10-31T06:26:43;38.78;;;17.10;;
9799;SDS011;4939;52.00085300;4.17406100;2022-10-31T06:29:09;30.42;;;14.75;;
9799;SDS011;4939;52.00085300;4.17406100;2022-10-31T06:31:35;35.20;;;16.15;;
9799;SDS011;4939;52.00085300;4.17406100;2022-10-31T06:34:02;34.83;;;15.48;;
9799;SDS011;4939;52.00085300;4.17406100;2022-10-31T06:36:28;31.70;;;15.68;;
9799;SDS011;4939;52.00085300;4.17406100;2022-10-31T06:38:54;31.70;;;14.80;;
9799;SDS011;4939;52.00085300;4.17406100;2022-10-31T06:41:20;35.13;;;16.08;;
9799;SDS011;4939;52.00085300;4.17406100;2022-10-31T06:43:46;34.78;;;16.23;;
9799;SDS011;4939;52.00085300;4.17406100;2022-10-31T06:46:12;32.58;;;16.30;;
9799;SDS011;4939;52.00085300;4.17406100;2022-10-31T06:48:40;36.15;;;15.93;;
9799;SDS011;4939;52.00085300;4.17406100;2022-10-31T06:51:06;38.42;;;16.85;;
9799;SDS011;4939;52.00085300;4.17406100;2022-10-31T06:53:33;36.17;;;16.05;;
9799;SDS011;4939;52.00085300;4.17406100;2022-10-31T06:55:59;33.15;;;16.83;;
9799;SDS011;4939;52.00085300;4.17406100;2022-10-31T06:58:25;34.10;;;15.63;;
9799;SDS011;4939;52.00085300;4.17406100;2022-10-31T07:00:51;34.42;;;16.45;;
9799;SDS011;4939;52.00085300;4.17406100;2022-10-31T07:03:17;39.92;;;17.92;;
9799;SDS011;4939;52.00085300;4.17406100;2022-10-31T07:05:45;39.30;;;16.88;;
9799;SDS011;4939;52.00085300;4.17406100;2022-10-31T07:08:12;38.85;;;17.08;;
9799;SDS011;4939;52.00085300;4.17406100;2022-10-31T07:10:38;33.92;;;16.77;;
9799;SDS011;4939;52.00085300;4.17406100;2022-10-31T07:13:05;36.25;;;16.42;;
9799;SDS011;4939;52.00085300;4.17406100;2022-10-31T07:15:33;28.67;;;15.50;;
9799;SDS011;4939;52.00085300;4.17406100;2022-10-31T07:18:00;33.90;;;15.75;;
9799;SDS011;4939;52.00085300;4.17406100;2022-10-31T07:20:26;39.22;;;17.02;;
9799;SDS011;4939;52.00085300;4.17406100;2022-10-31T07:22:52;30.13;;;15.25;;
9799;SDS011;4939;52.00085300;4.17406100;2022-10-31T07:25:19;35.08;;;17.02;;
9799;SDS011;4939;52.00085300;4.17406100;2022-10-31T07:27:45;32.03;;;14.48;;
9799;SDS011;4939;52.00085300;4.17406100;2022-10-31T07:30:12;33.05;;;15.40;;
9799;SDS011;4939;52.00085300;4.17406100;2022-10-31T07:32:45;32.03;;;16.90;;
9799;SDS011;4939;52.00085300;4.17406100;2022-10-31T07:35:13;33.13;;;16.23;;
9799;SDS011;4939;52.00085300;4.17406100;2022-10-31T07:37:39;32.50;;;15.18;;
9799;SDS011;4939;52.00085300;4.17406100;2022-10-31T07:40:06;32.20;;;16.05;;
9799;SDS011;4939;52.00085300;4.17406100;2022-10-31T07:42:36;31.90;;;15.27;;
9799;SDS011;4939;52.00085300;4.17406100;2022-10-31T07:45:03;29.83;;;14.80;;
9799;SDS011;4939;52.00085300;4.17406100;2022-10-31T07:47:29;31.42;;;16.33;;
9799;SDS011;4939;52.00085300;4.17406100;2022-10-31T07:49:55;33.78;;;15.70;;
9799;SDS011;4939;52.00085300;4.17406100;2022-10-31T07:52:21;40.63;;;18.33;;
9799;SDS011;4939;52.00085300;4.17406100;2022-10-31T07:54:47;47.35;;;18.50;;
9799;SDS011;4939;52.00085300;4.17406100;2022-10-31T07:57:13;33.83;;;15.80;;
9799;SDS011;4939;52.00085300;4.17406100;2022-10-31T07:59:39;33.15;;;16.30;;
9799;SDS011;4939;52.00085300;4.17406100;2022-10-31T08:02:07;31.45;;;15.73;;
9799;SDS011;4939;52.00085300;4.17406100;2022-10-31T08:04:33;32.80;;;16.45;;
9799;SDS011;4939;52.00085300;4.17406100;2022-10-31T08:06:59;27.63;;;15.27;;
9799;SDS011;4939;52.00085300;4.17406100;2022-10-31T08:09:25;32.15;;;16.63;;
9799;SDS011;4939;52.00085300;4.17406100;2022-10-31T08:11:52;41.30;;;17.27;;
9799;SDS011;4939;52.00085300;4.17406100;2022-10-31T08:14:18;48.20;;;17.40;;
9799;SDS011;4939;52.00085300;4.17406100;2022-10-31T08:16:44;27.80;;;15.68;;
9799;SDS011;4939;52.00085300;4.17406100;2022-10-31T08:19:10;36.75;;;16.77;;
9799;SDS011;4939;52.00085300;4.17406100;2022-10-31T08:21:36;30.63;;;15.70;;
9799;SDS011;4939;52.00085300;4.17406100;2022-10-31T08:24:02;36.35;;;15.85;;
9799;SDS011;4939;52.00085300;4.17406100;2022-10-31T08:26:28;31.67;;;16.02;;
9799;SDS011;4939;52.00085300;4.17406100;2022-10-31T08:28:55;31.15;;;15.15;;
9799;SDS011;4939;52.00085300;4.17406100;2022-10-31T08:31:22;32.22;;;15.68;;
9799;SDS011;4939;52.00085300;4.17406100;2022-10-31T08:33:48;30.52;;;15.45;;
9799;SDS011;4939;52.00085300;4.17406100;2022-10-31T08:36:14;32.45;;;16.63;;
9799;SDS011;4939;52.00085300;4.17406100;2022-10-31T08:38:41;30.50;;;16.55;;
9799;SDS011;4939;52.00085300;4.17406100;2022-10-31T08:41:07;29.08;;;16.23;;
9799;SDS011;4939;52.00085300;4.17406100;2022-10-31T08:43:33;34.90;;;16.75;;
9799;SDS011;4939;52.00085300;4.17406100;2022-10-31T08:45:59;28.55;;;15.98;;
9799;SDS011;4939;52.00085300;4.17406100;2022-10-31T08:48:25;32.03;;;17.05;;
9799;SDS011;4939;52.00085300;4.17406100;2022-10-31T08:50:51;29.83;;;17.30;;
9799;SDS011;4939;52.00085300;4.17406100;2022-10-31T08:53:18;35.15;;;17.27;;
9799;SDS011;4939;52.00085300;4.17406100;2022-10-31T08:55:45;32.08;;;17.25;;
9799;SDS011;4939;52.00085300;4.17406100;2022-10-31T08:58:15;36.17;;;17.27;;
9799;SDS011;4939;52.00085300;4.17406100;2022-10-31T09:00:42;42.65;;;18.67;;
9799;SDS011;4939;52.00085300;4.17406100;2022-10-31T09:03:19;38.50;;;17.95;;
9799;SDS011;4939;52.00085300;4.17406100;2022-10-31T09:05:45;35.20;;;17.27;;
9799;SDS011;4939;52.00085300;4.17406100;2022-10-31T09:08:12;32.67;;;17.98;;
9799;SDS011;4939;52.00085300;4.17406100;2022-10-31T09:10:38;29.67;;;16.80;;
9799;SDS011;4939;52.00085300;4.17406100;2022-10-31T09:13:06;36.00;;;18.27;;
9799;SDS011;4939;52.00085300;4.17406100;2022-10-31T09:15:37;28.40;;;15.38;;
9799;SDS011;4939;52.00085300;4.17406100;2022-10-31T09:18:04;29.38;;;15.77;;
9799;SDS011;4939;52.00085300;4.17406100;2022-10-31T09:20:31;28.85;;;15.07;;
9799;SDS011;4939;52.00085300;4.17406100;2022-10-31T09:23:00;25.88;;;14.23;;
9799;SDS011;4939;52.00085300;4.17406100;2022-10-31T09:25:27;33.53;;;13.48;;
9799;SDS011;4939;52.00085300;4.17406100;2022-10-31T09:27:57;25.05;;;11.70;;
9799;SDS011;4939;52.00085300;4.17406100;2022-10-31T09:30:24;25.50;;;11.30;;
9799;SDS011;4939;52.00085300;4.17406100;2022-10-31T09:32:56;26.33;;;12.40;;
9799;SDS011;4939;52.00085300;4.17406100;2022-10-31T09:35:23;24.65;;;12.23;;
9799;SDS011;4939;52.00085300;4.17406100;2022-10-31T09:37:55;21.40;;;11.80;;
9799;SDS011;4939;52.00085300;4.17406100;2022-10-31T09:40:23;24.00;;;11.65;;
9799;SDS011;4939;52.00085300;4.17406100;2022-10-31T09:45:25;20.83;;;11.75;;
9799;SDS011;4939;52.00085300;4.17406100;2022-10-31T09:50:36;23.05;;;10.00;;
9799;SDS011;4939;52.00085300;4.17406100;2022-10-31T09:53:12;18.95;;;9.95;;
9799;SDS011;4939;52.00085300;4.17406100;2022-10-31T09:55:43;20.90;;;10.18;;
9799;SDS011;4939;52.00085300;4.17406100;2022-10-31T09:58:28;22.05;;;10.45;;
9799;SDS011;4939;52.00085300;4.17406100;2022-10-31T10:00:56;22.67;;;10.18;;
9799;SDS011;4939;52.00085300;4.17406100;2022-10-31T10:03:41;17.30;;;9.27;;
9799;SDS011;4939;52.00085300;4.17406100;2022-10-31T10:06:11;17.95;;;9.75;;
9799;SDS011;4939;52.00085300;4.17406100;2022-10-31T10:08:39;21.25;;;10.18;;
9799;SDS011;4939;52.00085300;4.17406100;2022-10-31T10:11:25;19.33;;;8.70;;
9799;SDS011;4939;52.00085300;4.17406100;2022-10-31T10:16:42;16.83;;;8.27;;
9799;SDS011;4939;52.00085300;4.17406100;2022-10-31T10:21:56;18.15;;;9.05;;
9799;SDS011;4939;52.00085300;4.17406100;2022-10-31T10:24:31;15.43;;;8.15;;
9799;SDS011;4939;52.00085300;4.17406100;2022-10-31T10:27:03;21.13;;;8.38;;
9799;SDS011;4939;52.00085300;4.17406100;2022-10-31T10:29:37;15.23;;;7.65;;
9799;SDS011;4939;52.00085300;4.17406100;2022-10-31T10:32:17;19.42;;;8.65;;
9799;SDS011;4939;52.00085300;4.17406100;2022-10-31T10:34:50;21.05;;;8.52;;
9799;SDS011;4939;52.00085300;4.17406100;2022-10-31T10:37:21;17.17;;;8.80;;
9799;SDS011;4939;52.00085300;4.17406100;2022-10-31T10:39:49;25.13;;;9.82;;
9799;SDS011;4939;52.00085300;4.17406100;2022-10-31T10:42:17;16.85;;;8.35;;
9799;SDS011;4939;52.00085300;4.17406100;2022-10-31T10:45:12;20.23;;;8.73;;
9799;SDS011;4939;52.00085300;4.17406100;2022-10-31T10:48:01;18.80;;;8.38;;
9799;SDS011;4939;52.00085300;4.17406100;2022-10-31T10:50:31;16.90;;;8.63;;
9799;SDS011;4939;52.00085300;4.17406100;2022-10-31T10:55:55;22.58;;;9.27;;
9799;SDS011;4939;52.00085300;4.17406100;2022-10-31T10:58:22;21.52;;;8.98;;
9799;SDS011;4939;52.00085300;4.17406100;2022-10-31T11:00:48;18.05;;;10.30;;
9799;SDS011;4939;52.00085300;4.17406100;2022-10-31T11:03:15;22.40;;;9.63;;
9799;SDS011;4939;52.00085300;4.17406100;2022-10-31T11:05:43;18.23;;;8.80;;
9799;SDS011;4939;52.00085300;4.17406100;2022-10-31T11:08:10;21.02;;;7.63;;
9799;SDS011;4939;52.00085300;4.17406100;2022-10-31T11:10:37;17.92;;;7.35;;
9799;SDS011;4939;52.00085300;4.17406100;2022-10-31T11:15:56;15.60;;;7.68;;
9799;SDS011;4939;52.00085300;4.17406100;2022-10-31T11:18:23;18.85;;;8.23;;
9799;SDS011;4939;52.00085300;4.17406100;2022-10-31T11:20:51;12.77;;;7.53;;
9799;SDS011;4939;52.00085300;4.17406100;2022-10-31T11:23:18;14.88;;;5.53;;
9799;SDS011;4939;52.00085300;4.17406100;2022-10-31T11:25:51;8.32;;;4.03;;
9799;SDS011;4939;52.00085300;4.17406100;2022-10-31T11:28:17;11.02;;;4.28;;
9799;SDS011;4939;52.00085300;4.17406100;2022-10-31T11:30:45;11.15;;;4.20;;
9799;SDS011;4939;52.00085300;4.17406100;2022-10-31T11:33:22;12.27;;;4.45;;
9799;SDS011;4939;52.00085300;4.17406100;2022-10-31T11:35:50;11.55;;;4.55;;
9799;SDS011;4939;52.00085300;4.17406100;2022-10-31T11:38:18;10.63;;;4.97;;
9799;SDS011;4939;52.00085300;4.17406100;2022-10-31T11:40:51;12.18;;;5.25;;
9799;SDS011;4939;52.00085300;4.17406100;2022-10-31T11:43:17;12.70;;;5.18;;
9799;SDS011;4939;52.00085300;4.17406100;2022-10-31T11:45:44;12.18;;;5.13;;
9799;SDS011;4939;52.00085300;4.17406100;2022-10-31T11:48:17;13.38;;;6.18;;
9799;SDS011;4939;52.00085300;4.17406100;2022-10-31T11:50:47;17.25;;;6.88;;
9799;SDS011;4939;52.00085300;4.17406100;2022-10-31T11:53:24;19.42;;;7.03;;
9799;SDS011;4939;52.00085300;4.17406100;2022-10-31T11:56:03;15.98;;;6.10;;
9799;SDS011;4939;52.00085300;4.17406100;2022-10-31T11:58:30;17.25;;;7.63;;
9799;SDS011;4939;52.00085300;4.17406100;2022-10-31T12:00:57;19.50;;;9.80;;
9799;SDS011;4939;52.00085300;4.17406100;2022-10-31T12:03:36;18.95;;;10.73;;
9799;SDS011;4939;52.00085300;4.17406100;2022-10-31T12:06:05;21.40;;;10.50;;
9799;SDS011;4939;52.00085300;4.17406100;2022-10-31T12:08:34;34.50;;;15.40;;
9799;SDS011;4939;52.00085300;4.17406100;2022-10-31T12:16:18;33.95;;;18.38;;
9799;SDS011;4939;52.00085300;4.17406100;2022-10-31T12:27:06;37.63;;;18.52;;
9799;SDS011;4939;52.00085300;4.17406100;2022-10-31T12:29:40;39.03;;;19.70;;
9799;SDS011;4939;52.00085300;4.17406100;2022-10-31T12:35:05;39.83;;;20.20;;
9799;SDS011;4939;52.00085300;4.17406100;2022-10-31T12:37:43;35.70;;;19.75;;
9799;SDS011;4939;52.00085300;4.17406100;2022-10-31T12:43:08;41.03;;;21.52;;
9799;SDS011;4939;52.00085300;4.17406100;2022-10-31T12:50:50;51.30;;;22.48;;
9799;SDS011;4939;52.00085300;4.17406100;2022-10-31T12:53:20;42.65;;;21.08;;
9799;SDS011;4939;52.00085300;4.17406100;2022-10-31T12:55:53;43.55;;;21.30;;
9799;SDS011;4939;52.00085300;4.17406100;2022-10-31T12:58:23;41.90;;;21.08;;
9799;SDS011;4939;52.00085300;4.17406100;2022-10-31T13:03:38;44.75;;;22.92;;
9799;SDS011;4939;52.00085300;4.17406100;2022-10-31T13:06:09;43.80;;;23.02;;
9799;SDS011;4939;52.00085300;4.17406100;2022-10-31T13:08:43;42.72;;;21.35;;
9799;SDS011;4939;52.00085300;4.17406100;2022-10-31T13:11:13;42.22;;;20.48;;
9799;SDS011;4939;52.00085300;4.17406100;2022-10-31T13:16:25;44.97;;;20.65;;
9799;SDS011;4939;52.00085300;4.17406100;2022-10-31T13:21:30;39.75;;;20.67;;
9799;SDS011;4939;52.00085300;4.17406100;2022-10-31T13:24:00;43.78;;;20.98;;
9799;SDS011;4939;52.00085300;4.17406100;2022-10-31T13:26:36;47.35;;;22.25;;
9799;SDS011;4939;52.00085300;4.17406100;2022-10-31T13:31:32;46.30;;;21.83;;
9799;SDS011;4939;52.00085300;4.17406100;2022-10-31T13:34:03;41.08;;;20.27;;
9799;SDS011;4939;52.00085300;4.17406100;2022-10-31T13:36:36;46.92;;;22.30;;
9799;SDS011;4939;52.00085300;4.17406100;2022-10-31T13:41:32;37.53;;;19.88;;
9799;SDS011;4939;52.00085300;4.17406100;2022-10-31T13:44:09;47.87;;;22.00;;
9799;SDS011;4939;52.00085300;4.17406100;2022-10-31T13:46:37;41.70;;;19.50;;
9799;SDS011;4939;52.00085300;4.17406100;2022-10-31T13:49:04;46.85;;;20.90;;
9799;SDS011;4939;52.00085300;4.17406100;2022-10-31T13:51:44;48.25;;;20.13;;
9799;SDS011;4939;52.00085300;4.17406100;2022-10-31T13:54:30;39.55;;;20.02;;
9799;SDS011;4939;52.00085300;4.17406100;2022-10-31T13:56:57;43.47;;;21.70;;
9799;SDS011;4939;52.00085300;4.17406100;2022-10-31T13:59:23;50.95;;;21.95;;
9799;SDS011;4939;52.00085300;4.17406100;2022-10-31T14:02:01;49.05;;;21.35;;
9799;SDS011;4939;52.00085300;4.17406100;2022-10-31T14:04:30;54.45;;;22.83;;
9799;SDS011;4939;52.00085300;4.17406100;2022-10-31T14:07:05;45.25;;;20.92;;
9799;SDS011;4939;52.00085300;4.17406100;2022-10-31T14:09:34;46.45;;;21.67;;
9799;SDS011;4939;52.00085300;4.17406100;2022-10-31T14:12:02;51.88;;;22.00;;
9799;SDS011;4939;52.00085300;4.17406100;2022-10-31T14:14:30;50.47;;;22.85;;
9799;SDS011;4939;52.00085300;4.17406100;2022-10-31T14:16:57;52.15;;;21.35;;
9799;SDS011;4939;52.00085300;4.17406100;2022-10-31T14:19:24;55.45;;;21.45;;
9799;SDS011;4939;52.00085300;4.17406100;2022-10-31T14:21:50;49.33;;;23.35;;
9799;SDS011;4939;52.00085300;4.17406100;2022-10-31T14:26:55;48.35;;;20.98;;
9799;SDS011;4939;52.00085300;4.17406100;2022-10-31T14:29:23;49.63;;;20.92;;